Time;durP1;ratioP1;P1;durP2;ratioP2;P2;SDS_P1;SDS_P2;PMS_P1;PMS_P2;Temp;Humidity;BMP_temperature;BMP_pressure;BME280_temperature;BME280_humidity;BME280_pressure;Samples;Min_cycle;Max_cycle;Signal;HPM_P1;HPM_P2
2020/12/14 00:00:16;;;;;;;;;;;;;;;-0.23;100.00;92659.66;1063332;55;20154;-83
2020/12/14 00:01:17;;;;;;;;;;;;;;;-0.22;100.00;92653.31;1063398;55;20150;-84
2020/12/14 00:02:18;;;;;;;;;;;;;;;-0.22;100.00;92653.31;1061320;56;20257;-84
2020/12/14 00:03:23;;;;;;;;;;;;;;;-0.19;100.00;92651.81;1063659;55;20201;-83
2020/12/14 00:04:24;;;;;;;;;;;;;;;-0.19;100.00;92647.31;1065849;55;20178;-82
2020/12/14 00:05:24;;;;;;;;;;;;;;;-0.29;100.00;92646.09;1065594;55;20161;-83
2020/12/14 00:06:25;;;;;;;;;;;;;;;-0.19;100.00;92651.81;1063465;55;20262;-83
2020/12/14 00:07:25;;;;;;;;;;;;;;;-0.23;100.00;92641.28;1065672;55;20176;-84
2020/12/14 00:08:27;;;;;;;;;;;;;;;-0.20;100.00;92637.19;1067761;55;20169;-83
2020/12/14 00:09:27;;;;;;;;;;;;;;;-0.18;100.00;92635.69;1065564;55;20188;-83
2020/12/14 00:10:28;;;;;;;;;;;;;;;-0.08;100.00;92632.44;1063379;55;20177;-84
2020/12/14 00:11:33;;;;;;;;;;;;;;;-0.08;100.00;92629.81;1067921;55;20264;-86
2020/12/14 00:12:34;;;;;;;;;;;;;;;-0.17;100.00;92626.72;1070080;55;21157;-84
2020/12/14 00:13:34;;;;;;;;;;;;;;;-0.06;100.00;92619.69;1068010;55;20180;-84
2020/12/14 00:14:35;;;;;;;;;;;;;;;-0.03;100.00;92623.47;1065636;55;20180;-84
2020/12/14 00:15:35;;;;;;;;;;;;;;;-0.09;100.00;92625.69;1065672;55;20158;-84
2020/12/14 00:16:36;;;;;;;;;;;;;;;-0.03;100.00;92621.59;1065649;55;20188;-84
2020/12/14 00:17:36;;;;;;;;;;;;;;;0.07;100.00;92628.06;1067665;55;20601;-83
2020/12/14 00:18:37;;;;;;;;;;;;;;;0.05;100.00;92622.44;1065692;55;20146;-84
2020/12/14 00:19:37;;;;;;;;;;;;;;;0.03;100.00;92629.91;1065586;55;20168;-84
2020/12/14 00:20:37;;;;;;;;;;;;;;;-0.04;100.00;92627.97;1067878;55;20165;-84
2020/12/14 00:21:38;;;;;;;;;;;;;;;-0.02;100.00;92630.25;1067698;55;20253;-83
2020/12/14 00:22:38;;;;;;;;;;;;;;;-0.03;100.00;92624.22;1067737;55;20145;-85
2020/12/14 00:23:39;;;;;;;;;;;;;;;-0.08;100.00;92624.56;1065626;55;20176;-84
2020/12/14 00:24:40;;;;;;;;;;;;;;;-0.06;100.00;92622.31;1067843;55;20242;-83
2020/12/14 00:25:40;;;;;;;;;;;;;;;0.05;100.00;92629.56;1067690;55;20204;-84
2020/12/14 00:26:40;;;;;;;;;;;;;;;0.08;100.00;92618.31;1065633;55;20173;-83
2020/12/14 00:27:41;;;;;;;;;;;;;;;0.06;100.00;92625.81;1065644;55;20594;-83
2020/12/14 00:28:41;;;;;;;;;;;;;;;0.06;100.00;92612.69;1067909;55;20169;-84
2020/12/14 00:29:42;;;;;;;;;;;;;;;0.10;100.00;92622.09;1065730;55;20235;-83
2020/12/14 00:30:42;;;;;;;;;;;;;;;0.07;100.00;92619.44;1067745;55;20168;-84
2020/12/14 00:31:43;;;;;;;;;;;;;;;0.17;100.00;92622.16;1065673;55;20153;-84
2020/12/14 00:32:43;;;;;;;;;;;;;;;0.09;100.00;92617.19;1063485;55;20153;-85
2020/12/14 00:33:44;;;;;;;;;;;;;;;0.14;100.00;92615.00;1067781;55;20176;-84
2020/12/14 00:34:44;;;;;;;;;;;;;;;0.14;100.00;92625.53;1067874;55;20208;-84
2020/12/14 00:35:45;;;;;;;;;;;;;;;0.08;100.00;92626.19;1063363;55;20248;-84
2020/12/14 00:36:45;;;;;;;;;;;;;;;0.07;100.00;92624.69;1063413;55;20181;-83
2020/12/14 00:37:46;;;;;;;;;;;;;;;0.07;100.00;92635.94;1063270;55;20259;-84
2020/12/14 00:38:46;;;;;;;;;;;;;;;0.12;100.00;92622.47;1065637;55;20165;-84
2020/12/14 00:39:47;;;;;;;;;;;;;;;0.12;100.00;92624.34;1067679;55;20637;-83
2020/12/14 00:40:47;;;;;;;;;;;;;;;0.15;100.00;92626.28;1065381;55;20177;-83
2020/12/14 00:41:48;;;;;;;;;;;;;;;0.13;100.00;92629.28;1067645;55;20153;-83
2020/12/14 00:42:48;;;;;;;;;;;;;;;0.10;100.00;92631.84;1065795;55;20631;-83
2020/12/14 00:43:50;;;;;;;;;;;;;;;0.05;100.00;92630.31;1063704;55;20170;-84
2020/12/14 00:44:52;;;;;;;;;;;;;;;0.11;100.00;92636.00;1065648;55;20651;-83
2020/12/14 00:45:53;;;;;;;;;;;;;;;0.08;100.00;92636.72;1065640;55;20157;-84
2020/12/14 00:46:53;;;;;;;;;;;;;;;0.08;100.00;92637.47;1063386;55;20154;-83
2020/12/14 00:47:54;;;;;;;;;;;;;;;0.15;100.00;92640.16;1065697;55;20243;-84
2020/12/14 00:48:55;;;;;;;;;;;;;;;0.25;100.00;92636.13;1070186;55;20218;-83
2020/12/14 00:49:55;;;;;;;;;;;;;;;0.22;100.00;92642.88;1067786;55;20145;-83
2020/12/14 00:50:57;;;;;;;;;;;;;;;0.24;100.00;92640.63;1063392;55;20268;-83
2020/12/14 00:52:04;;;;;;;;;;;;;;;0.24;100.00;92639.88;1065557;55;20636;-82
2020/12/14 00:53:04;;;;;;;;;;;;;;;0.19;100.00;92637.56;1065840;55;20158;-83
2020/12/14 00:54:07;;;;;;;;;;;;;;;0.21;100.00;92636.06;1063450;55;20262;-82
2020/12/14 00:55:09;;;;;;;;;;;;;;;0.17;100.00;92632.66;1065585;55;20646;-84
2020/12/14 00:56:09;;;;;;;;;;;;;;;0.21;100.00;92638.72;1063348;55;20237;-83
2020/12/14 00:57:10;;;;;;;;;;;;;;;0.22;100.00;92640.25;1063317;55;20182;-83
2020/12/14 00:58:13;;;;;;;;;;;;;;;0.23;100.00;92643.63;1067872;55;20661;-83
2020/12/14 00:59:15;;;;;;;;;;;;;;;0.29;100.00;92641.41;1065461;55;20165;-84
2020/12/14 01:00:16;;;;;;;;;;;;;;;0.24;100.00;92643.25;1065566;55;20233;-83
2020/12/14 01:01:17;;;;;;;;;;;;;;;0.28;100.00;92645.16;1065549;55;20158;-83
2020/12/14 01:02:22;;;;;;;;;;;;;;;0.25;100.00;92644.00;1065511;55;20184;-83
2020/12/14 01:03:25;;;;;;;;;;;;;;;0.27;100.00;92633.91;1065752;55;20559;-84
2020/12/14 01:04:26;;;;;;;;;;;;;;;0.34;100.00;92633.94;1065673;55;20188;-83
2020/12/14 01:05:27;;;;;;;;;;;;;;;0.31;100.00;92639.94;1065621;55;20161;-83
2020/12/14 01:06:28;;;;;;;;;;;;;;;0.30;100.00;92641.03;1067755;55;20618;-83
2020/12/14 01:07:28;;;;;;;;;;;;;;;0.28;100.00;92640.66;1067721;55;20253;-84
2020/12/14 01:08:28;;;;;;;;;;;;;;;0.27;100.00;92641.78;1065416;55;20149;-83
2020/12/14 01:09:30;;;;;;;;;;;;;;;0.27;100.00;92641.78;1065782;55;20278;-86
2020/12/14 01:10:31;;;;;;;;;;;;;;;0.27;100.00;92647.03;1065573;55;20618;-83
2020/12/14 01:11:31;;;;;;;;;;;;;;;0.27;100.00;92648.91;1061351;56;20634;-82
2020/12/14 01:12:32;;;;;;;;;;;;;;;0.28;100.00;92645.91;1063448;55;20150;-84
2020/12/14 01:13:32;;;;;;;;;;;;;;;0.31;100.00;92649.66;1065562;55;20169;-84
2020/12/14 01:14:35;;;;;;;;;;;;;;;0.33;100.00;92644.81;1067740;55;20602;-84
2020/12/14 01:15:36;;;;;;;;;;;;;;;0.32;100.00;92646.69;1067614;55;20261;-85
2020/12/14 01:16:36;;;;;;;;;;;;;;;0.30;100.00;92637.66;1065556;55;20153;-84
2020/12/14 01:17:37;;;;;;;;;;;;;;;0.36;100.00;92638.84;1067668;55;20149;-82
2020/12/14 01:18:37;;;;;;;;;;;;;;;0.36;100.00;92639.59;1067719;55;20149;-83
2020/12/14 01:19:38;;;;;;;;;;;;;;;0.34;100.00;92636.56;1067572;55;20173;-84
2020/12/14 01:20:40;;;;;;;;;;;;;;;0.32;100.00;92646.69;1065467;55;20154;-84
2020/12/14 01:21:40;;;;;;;;;;;;;;;0.42;100.00;92640.78;1065421;55;20656;-83
2020/12/14 01:22:44;;;;;;;;;;;;;;;0.32;100.00;92651.97;1067712;55;20169;-83
2020/12/14 01:23:45;;;;;;;;;;;;;;;0.26;100.00;92642.88;1069824;55;20681;-84
2020/12/14 01:24:46;;;;;;;;;;;;;;;0.29;100.00;92647.41;1065388;55;20218;-83
2020/12/14 01:25:46;;;;;;;;;;;;;;;0.26;100.00;92653.37;1061108;56;20202;-83
2020/12/14 01:26:46;;;;;;;;;;;;;;;0.29;100.00;92646.66;1065354;55;20188;-84
2020/12/14 01:27:48;;;;;;;;;;;;;;;0.34;100.00;92652.34;1067609;55;20184;-84
2020/12/14 01:28:48;;;;;;;;;;;;;;;0.33;100.00;92652.72;1063248;55;20242;-83
2020/12/14 01:29:49;;;;;;;;;;;;;;;0.37;100.00;92650.88;1061065;56;20177;-85
2020/12/14 01:30:49;;;;;;;;;;;;;;;0.29;100.00;92650.03;1063246;55;20240;-83
2020/12/14 01:31:50;;;;;;;;;;;;;;;0.29;100.00;92651.91;1065365;55;20661;-83
2020/12/14 01:32:51;;;;;;;;;;;;;;;0.35;100.00;92656.50;1065542;55;20177;-85
2020/12/14 01:33:51;;;;;;;;;;;;;;;0.29;100.00;92657.19;1065529;55;20606;-85
2020/12/14 01:34:52;;;;;;;;;;;;;;;0.29;100.00;92657.94;1065478;55;20173;-84
2020/12/14 01:35:52;;;;;;;;;;;;;;;0.33;100.00;92647.44;1067692;55;20200;-83
2020/12/14 01:36:53;;;;;;;;;;;;;;;0.28;100.00;92645.91;1067632;55;20184;-86
2020/12/14 01:37:53;;;;;;;;;;;;;;;0.26;100.00;92653.37;1063164;55;20173;-84
2020/12/14 01:38:54;;;;;;;;;;;;;;;0.24;100.00;92651.13;1065494;55;20681;-83
2020/12/14 01:39:54;;;;;;;;;;;;;;;0.27;100.00;92656.78;1067570;55;20161;-85
2020/12/14 01:40:55;;;;;;;;;;;;;;;0.25;100.00;92644.00;1067620;55;20149;-83
2020/12/14 01:41:56;;;;;;;;;;;;;;;0.19;100.00;92646.22;1063294;55;20189;-84
2020/12/14 01:42:57;;;;;;;;;;;;;;;0.20;100.00;92647.72;1063255;55;20181;-83
2020/12/14 01:43:57;;;;;;;;;;;;;;;0.29;100.00;92652.69;1067641;55;20161;-82
2020/12/14 01:44:58;;;;;;;;;;;;;;;0.30;100.00;92648.16;1065393;55;20184;-85
2020/12/14 01:45:58;;;;;;;;;;;;;;;0.29;100.00;92650.03;1065426;55;20189;-83
2020/12/14 01:46:59;;;;;;;;;;;;;;;0.20;100.00;92650.34;1065283;55;20196;-84
2020/12/14 01:48:01;;;;;;;;;;;;;;;0.29;100.00;92642.16;1065378;55;20670;-85
2020/12/14 01:49:02;;;;;;;;;;;;;;;0.32;100.00;92646.69;1067570;55;20633;-84
2020/12/14 01:50:05;;;;;;;;;;;;;;;0.33;100.00;92650.09;1065445;55;20162;-84
2020/12/14 01:51:05;;;;;;;;;;;;;;;0.35;100.00;92643.34;1065370;55;20252;-84
2020/12/14 01:52:06;;;;;;;;;;;;;;;0.37;100.00;92643.75;1065552;55;20630;-83
2020/12/14 01:53:09;;;;;;;;;;;;;;;0.34;100.00;92636.56;1067964;55;20175;-83
2020/12/14 01:54:21;;;;;;;;;;;;;;;0.24;100.00;92643.25;1065632;55;20184;-84
2020/12/14 01:55:23;;;;;;;;;;;;;;;0.23;100.00;92643.63;1065979;55;20176;-83
2020/12/14 01:56:24;;;;;;;;;;;;;;;0.29;100.00;92638.78;1065878;55;20654;-84
2020/12/14 01:57:25;;;;;;;;;;;;;;;0.24;100.00;92624.84;1068107;55;20169;-83
2020/12/14 01:58:25;;;;;;;;;;;;;;;0.27;100.00;92639.16;1070495;55;20145;-83
2020/12/14 01:59:28;;;;;;;;;;;;;;;0.32;100.00;92632.81;1065963;55;20188;-87
2020/12/14 02:00:29;;;;;;;;;;;;;;;0.24;100.00;92627.47;1063759;55;20202;-84
2020/12/14 02:01:30;;;;;;;;;;;;;;;0.29;100.00;92630.91;1065963;55;20266;-84
2020/12/14 02:02:30;;;;;;;;;;;;;;;0.22;100.00;92634.19;1068079;55;20257;-84
2020/12/14 02:03:31;;;;;;;;;;;;;;;0.21;100.00;92624.81;1065999;55;20158;-85
2020/12/14 02:04:31;;;;;;;;;;;;;;;0.22;100.00;92629.72;1063924;55;20165;-84
2020/12/14 02:05:32;;;;;;;;;;;;;;;0.21;100.00;92630.06;1066070;55;20172;-83
2020/12/14 02:06:33;;;;;;;;;;;;;;;0.22;100.00;92631.56;1068133;55;20262;-83
2020/12/14 02:07:33;;;;;;;;;;;;;;;0.27;100.00;92628.63;1068074;55;20305;-84
2020/12/14 02:08:34;;;;;;;;;;;;;;;0.22;100.00;92619.22;1068276;55;20206;-82
2020/12/14 02:09:35;;;;;;;;;;;;;;;0.24;100.00;92621.47;1065887;55;20173;-83
2020/12/14 02:10:36;;;;;;;;;;;;;;;0.28;100.00;92619.62;1065987;55;20724;-87
2020/12/14 02:11:36;;;;;;;;;;;;;;;0.24;100.00;92624.09;1067928;55;20173;-84
2020/12/14 02:12:37;;;;;;;;;;;;;;;0.19;100.00;92619.19;1067948;55;20165;-85
2020/12/14 02:13:38;;;;;;;;;;;;;;;0.21;100.00;92622.19;1063686;55;20638;-84
2020/12/14 02:14:38;;;;;;;;;;;;;;;0.18;100.00;92623.69;1065705;55;20173;-83
2020/12/14 02:15:40;;;;;;;;;;;;;;;0.24;100.00;92627.47;1063570;55;20254;-85
2020/12/14 02:16:40;;;;;;;;;;;;;;;0.25;100.00;92623.72;1063624;55;20181;-84
2020/12/14 02:17:41;;;;;;;;;;;;;;;0.23;100.00;92622.59;1067978;55;20192;-84
2020/12/14 02:18:41;;;;;;;;;;;;;;;0.15;100.00;92621.75;1065900;55;20181;-85
2020/12/14 02:19:41;;;;;;;;;;;;;;;0.16;100.00;92618.03;1065753;55;21093;-83
2020/12/14 02:20:42;;;;;;;;;;;;;;;0.15;100.00;92624.41;1065740;55;20254;-85
2020/12/14 02:21:43;;;;;;;;;;;;;;;0.20;100.00;92634.56;1063692;55;20170;-84
2020/12/14 02:22:43;;;;;;;;;;;;;;;0.22;100.00;92623.69;1063769;55;20201;-83
2020/12/14 02:23:44;;;;;;;;;;;;;;;0.17;100.00;92624.78;1065768;55;20270;-85
2020/12/14 02:24:51;;;;;;;;;;;;;;;0.20;100.00;92623.31;1067978;55;20149;-83
2020/12/14 02:25:51;;;;;;;;;;;;;;;0.15;100.00;92626.28;1065853;55;21195;-83
2020/12/14 02:26:52;;;;;;;;;;;;;;;0.16;100.00;92625.16;1063503;55;20162;-84
2020/12/14 02:27:52;;;;;;;;;;;;;;;0.17;100.00;92614.25;1065994;55;20157;-83
2020/12/14 02:28:53;;;;;;;;;;;;;;;0.24;100.00;92616.97;1065832;55;20181;-83
2020/12/14 02:29:54;;;;;;;;;;;;;;;0.25;100.00;92630.84;1065895;55;20185;-85
2020/12/14 02:30:54;;;;;;;;;;;;;;;0.24;100.00;92624.84;1065738;55;20154;-84
2020/12/14 02:31:55;;;;;;;;;;;;;;;0.22;100.00;92621.06;1061404;56;20154;-83
2020/12/14 02:32:55;;;;;;;;;;;;;;;0.19;100.00;92616.56;1063522;55;20259;-83
2020/12/14 02:33:56;;;;;;;;;;;;;;;0.19;100.00;92613.91;1067941;55;20188;-84
2020/12/14 02:34:56;;;;;;;;;;;;;;;0.18;100.00;92623.69;1065716;55;20172;-85
2020/12/14 02:35:57;;;;;;;;;;;;;;;0.18;100.00;92620.31;1063653;55;20653;-85
2020/12/14 02:36:57;;;;;;;;;;;;;;;0.23;100.00;92631.22;1061398;56;20170;-84
2020/12/14 02:37:58;;;;;;;;;;;;;;;0.24;100.00;92622.22;1065638;55;20189;-83
2020/12/14 02:38:58;;;;;;;;;;;;;;;0.19;100.00;92624.44;1067992;55;20263;-83
2020/12/14 02:39:59;;;;;;;;;;;;;;;0.22;100.00;92623.69;1067997;55;20172;-83
2020/12/14 02:40:59;;;;;;;;;;;;;;;0.22;100.00;92621.84;1070146;55;20716;-83
2020/12/14 02:42:01;;;;;;;;;;;;;;;0.24;100.00;92627.47;1068144;55;20205;-84
2020/12/14 02:43:01;;;;;;;;;;;;;;;0.19;100.00;92621.81;1063782;55;20154;-84
2020/12/14 02:44:01;;;;;;;;;;;;;;;0.29;100.00;92617.75;1065819;55;20628;-84
2020/12/14 02:45:02;;;;;;;;;;;;;;;0.29;100.00;92621.13;1070254;55;20169;-83
2020/12/14 02:46:03;;;;;;;;;;;;;;;0.32;100.00;92619.66;1065766;55;20258;-84
2020/12/14 02:47:04;;;;;;;;;;;;;;;0.33;100.00;92621.16;1063634;55;20240;-82
2020/12/14 02:48:05;;;;;;;;;;;;;;;0.25;100.00;92617.72;1065820;55;20146;-83
2020/12/14 02:49:06;;;;;;;;;;;;;;;0.23;100.00;92619.97;1065722;55;20169;-84
2020/12/14 02:50:07;;;;;;;;;;;;;;;0.17;100.00;92616.13;1065947;55;20169;-84
2020/12/14 02:51:07;;;;;;;;;;;;;;;0.22;100.00;92618.44;1065760;55;20165;-84
2020/12/14 02:52:09;;;;;;;;;;;;;;;0.20;100.00;92621.44;1065837;55;20241;-84
2020/12/14 02:53:09;;;;;;;;;;;;;;;0.17;100.00;92618.78;1065862;55;20188;-84
2020/12/14 02:54:09;;;;;;;;;;;;;;;0.13;100.00;92617.97;1067941;55;20198;-83
2020/12/14 02:55:10;;;;;;;;;;;;;;;0.13;100.00;92617.97;1065397;55;20158;-83
2020/12/14 02:56:10;;;;;;;;;;;;;;;0.16;100.00;92622.53;1063772;55;20197;-84
2020/12/14 02:57:12;;;;;;;;;;;;;;;0.14;100.00;92616.88;1065793;55;20157;-83
2020/12/14 02:58:13;;;;;;;;;;;;;;;0.23;100.00;92622.59;1065725;55;20628;-85
2020/12/14 02:59:14;;;;;;;;;;;;;;;0.18;100.00;92615.78;1063633;55;20150;-83
2020/12/14 03:00:15;;;;;;;;;;;;;;;0.14;100.00;92614.25;1063684;55;20267;-84
2020/12/14 03:01:15;;;;;;;;;;;;;;;0.12;100.00;92609.34;1063648;55;20740;-83
2020/12/14 03:02:16;;;;;;;;;;;;;;;0.03;100.00;92613.38;1067924;55;20158;-83
2020/12/14 03:03:16;;;;;;;;;;;;;;;0.10;100.00;92614.22;1070351;55;20161;-84
2020/12/14 03:04:18;;;;;;;;;;;;;;;0.11;100.00;92599.97;1067771;55;20161;-83
2020/12/14 03:05:18;;;;;;;;;;;;;;;0.10;100.00;92603.72;1065885;55;20209;-84
2020/12/14 03:06:19;;;;;;;;;;;;;;;0.12;100.00;92600.72;1063551;55;20666;-83
2020/12/14 03:07:19;;;;;;;;;;;;;;;0.07;100.00;92598.41;1065915;55;20161;-85
2020/12/14 03:08:20;;;;;;;;;;;;;;;0.10;100.00;92597.69;1067899;55;20165;-83
2020/12/14 03:09:21;;;;;;;;;;;;;;;0.15;100.00;92602.63;1067964;55;20165;-84
2020/12/14 03:10:21;;;;;;;;;;;;;;;0.15;100.00;92607.87;1068047;55;20157;-83
2020/12/14 03:11:22;;;;;;;;;;;;;;;0.08;100.00;92605.94;1068051;55;20188;-83
2020/12/14 03:12:23;;;;;;;;;;;;;;;0.13;100.00;92607.47;1068017;55;20253;-83
2020/12/14 03:13:23;;;;;;;;;;;;;;;0.11;100.00;92607.84;1063648;55;20177;-84
2020/12/14 03:14:25;;;;;;;;;;;;;;;0.13;100.00;92602.22;1065697;55;20158;-84
2020/12/14 03:15:25;;;;;;;;;;;;;;;0.14;100.00;92607.13;1065732;55;20195;-83
2020/12/14 03:16:26;;;;;;;;;;;;;;;0.13;100.00;92604.84;1065707;55;20177;-83
2020/12/14 03:17:27;;;;;;;;;;;;;;;0.13;100.00;92608.25;1067889;55;20188;-84
2020/12/14 03:18:27;;;;;;;;;;;;;;;0.17;100.00;92605.63;1067898;55;20156;-84
2020/12/14 03:19:28;;;;;;;;;;;;;;;0.21;100.00;92603.78;1065702;55;20271;-83
2020/12/14 03:20:29;;;;;;;;;;;;;;;0.09;100.00;92601.41;1065719;55;20239;-84
2020/12/14 03:21:29;;;;;;;;;;;;;;;0.15;100.00;92594.75;1067863;55;20237;-82
2020/12/14 03:22:31;;;;;;;;;;;;;;;0.17;100.00;92601.13;1063650;55;20166;-83
2020/12/14 03:23:31;;;;;;;;;;;;;;;0.08;100.00;92602.53;1065825;55;20161;-85
2020/12/14 03:24:32;;;;;;;;;;;;;;;0.09;100.00;92596.94;1065851;55;20161;-83
2020/12/14 03:25:32;;;;;;;;;;;;;;;0.04;100.00;92601.75;1065574;55;20318;-83
2020/12/14 03:26:33;;;;;;;;;;;;;;;0.07;100.00;92595.78;1065799;55;20185;-83
2020/12/14 03:27:33;;;;;;;;;;;;;;;0.12;100.00;92600.72;1065755;55;20189;-84
2020/12/14 03:28:34;;;;;;;;;;;;;;;0.07;100.00;92603.66;1065676;55;20185;-85
2020/12/14 03:29:34;;;;;;;;;;;;;;;0.04;100.00;92604.38;1065943;55;20149;-83
2020/12/14 03:30:35;;;;;;;;;;;;;;;0.04;100.00;92601.75;1063435;55;20264;-84
2020/12/14 03:31:36;;;;;;;;;;;;;;;0.01;100.00;92600.63;1063565;55;20147;-84
2020/12/14 03:32:37;;;;;;;;;;;;;;;0.02;100.00;92604.00;1063580;55;20193;-84
2020/12/14 03:33:38;;;;;;;;;;;;;;;0.03;100.00;92598.38;1067856;55;20664;-84
2020/12/14 03:34:38;;;;;;;;;;;;;;;0.01;100.00;92608.50;1065730;55;20169;-83
2020/12/14 03:35:39;;;;;;;;;;;;;;;0.02;100.00;92604.75;1061391;56;20177;-83
2020/12/14 03:36:39;;;;;;;;;;;;;;;0.03;100.00;92595.00;1063657;55;20154;-83
2020/12/14 03:37:40;;;;;;;;;;;;;;;0.02;100.00;92596.88;1065673;55;20189;-83
2020/12/14 03:38:40;;;;;;;;;;;;;;;-0.04;100.00;92598.34;1065702;55;20197;-84
2020/12/14 03:39:41;;;;;;;;;;;;;;;0.01;100.00;92600.63;1067925;55;20204;-83
2020/12/14 03:40:42;;;;;;;;;;;;;;;0.10;100.00;92602.97;1065729;55;20601;-84
2020/12/14 03:41:42;;;;;;;;;;;;;;;0.10;100.00;92601.09;1063652;55;20158;-83
2020/12/14 03:42:43;;;;;;;;;;;;;;;0.17;100.00;92603.00;1065636;55;20150;-84
2020/12/14 03:43:44;;;;;;;;;;;;;;;0.07;100.00;92596.53;1063525;55;20252;-84
2020/12/14 03:44:44;;;;;;;;;;;;;;;0.01;100.00;92599.87;1063528;55;20177;-83
2020/12/14 03:45:45;;;;;;;;;;;;;;;-0.02;100.00;92602.09;1065688;55;20177;-84
2020/12/14 03:46:45;;;;;;;;;;;;;;;0.02;100.00;92604.00;1063433;55;20176;-82
2020/12/14 03:47:46;;;;;;;;;;;;;;;-0.02;100.00;92599.47;1065539;55;20262;-83
2020/12/14 03:48:47;;;;;;;;;;;;;;;-0.03;100.00;92597.22;1065675;55;20150;-84
2020/12/14 03:49:47;;;;;;;;;;;;;;;-0.04;100.00;92601.72;1061358;55;20185;-82
2020/12/14 03:50:48;;;;;;;;;;;;;;;-0.02;100.00;92603.97;1063333;55;20154;-85
2020/12/14 03:51:48;;;;;;;;;;;;;;;-0.10;100.00;92592.63;1065578;55;20184;-83
2020/12/14 03:52:49;;;;;;;;;;;;;;;-0.02;100.00;92604.72;1063396;55;20259;-83
2020/12/14 03:53:50;;;;;;;;;;;;;;;-0.04;100.00;92600.97;1065504;55;20589;-82
2020/12/14 03:54:50;;;;;;;;;;;;;;;-0.06;100.00;92596.03;1065401;55;20184;-82
2020/12/14 03:55:51;;;;;;;;;;;;;;;-0.07;100.00;92610.31;1061624;55;20163;-82
2020/12/14 03:56:51;;;;;;;;;;;;;;;-0.05;100.00;92607.31;1063574;55;20166;-83
2020/12/14 03:57:52;;;;;;;;;;;;;;;-0.08;100.00;92614.06;1065509;55;20193;-83
2020/12/14 03:58:53;;;;;;;;;;;;;;;-0.09;100.00;92609.91;1065527;55;20173;-83
2020/12/14 03:59:53;;;;;;;;;;;;;;;-0.08;100.00;92611.44;1065602;55;20161;-84
2020/12/14 04:00:54;;;;;;;;;;;;;;;-0.12;100.00;92613.25;1063483;55;20177;-83
2020/12/14 04:01:55;;;;;;;;;;;;;;;-0.09;100.00;92617.81;1063440;55;20192;-82
2020/12/14 04:02:56;;;;;;;;;;;;;;;-0.02;100.00;92602.09;1065588;55;20173;-83
2020/12/14 04:03:56;;;;;;;;;;;;;;;0.04;100.00;92609.63;1067776;55;20157;-83
2020/12/14 04:04:56;;;;;;;;;;;;;;;-0.02;100.00;92604.72;1065546;55;20157;-84
2020/12/14 04:05:57;;;;;;;;;;;;;;;-0.10;100.00;92603.13;1065615;55;20724;-84
2020/12/14 04:06:57;;;;;;;;;;;;;;;-0.04;100.00;92608.84;1069797;55;20624;-84
2020/12/14 04:07:58;;;;;;;;;;;;;;;-0.04;100.00;92601.72;1065506;55;20590;-84
2020/12/14 04:08:59;;;;;;;;;;;;;;;-0.04;100.00;92604.34;1063333;55;20149;-82
2020/12/14 04:09:59;;;;;;;;;;;;;;;-0.03;100.00;92600.59;1065496;55;20153;-83
2020/12/14 04:11:00;;;;;;;;;;;;;;;-0.10;100.00;92612.88;1065496;55;20154;-84
2020/12/14 04:12:00;;;;;;;;;;;;;;;-0.13;100.00;92605.72;1065537;55;20189;-83
2020/12/14 04:13:01;;;;;;;;;;;;;;;-0.06;100.00;92600.53;1065575;55;20204;-82
2020/12/14 04:14:01;;;;;;;;;;;;;;;-0.03;100.00;92597.22;1063464;55;20177;-83
2020/12/14 04:15:02;;;;;;;;;;;;;;;-0.14;100.00;92612.84;1063309;55;20722;-84
2020/12/14 04:16:02;;;;;;;;;;;;;;;-0.20;100.00;92609.03;1063419;55;20173;-83
2020/12/14 04:17:03;;;;;;;;;;;;;;;-0.12;100.00;92608.00;1065629;55;20180;-82
2020/12/14 04:18:04;;;;;;;;;;;;;;;-0.04;100.00;92603.59;1065348;55;20154;-83
2020/12/14 04:19:05;;;;;;;;;;;;;;;-0.06;100.00;92606.56;1061333;55;20230;-83
2020/12/14 04:20:08;;;;;;;;;;;;;;;-0.04;100.00;92601.72;1061442;55;20248;-83
2020/12/14 04:21:08;;;;;;;;;;;;;;;0.01;100.00;92610.38;1065497;55;20177;-82
2020/12/14 04:22:09;;;;;;;;;;;;;;;-0.02;100.00;92611.84;1067721;55;20184;-82
2020/12/14 04:23:10;;;;;;;;;;;;;;;0.00;100.00;92604.38;1067666;55;20177;-84
2020/12/14 04:24:10;;;;;;;;;;;;;;;-0.06;100.00;92609.19;1069780;55;20648;-83
2020/12/14 04:25:10;;;;;;;;;;;;;;;0.01;100.00;92602.50;1067712;55;20196;-83
2020/12/14 04:26:13;;;;;;;;;;;;;;;-0.01;100.00;92614.09;1063352;55;20621;-83
2020/12/14 04:27:14;;;;;;;;;;;;;;;-0.06;100.00;92617.06;1061454;55;20166;-84
2020/12/14 04:28:16;;;;;;;;;;;;;;;-0.07;100.00;92615.56;1061391;55;20196;-84
2020/12/14 04:29:16;;;;;;;;;;;;;;;-0.22;100.00;92613.91;1061216;56;20632;-84
2020/12/14 04:30:17;;;;;;;;;;;;;;;-0.11;100.00;92617.41;1065554;55;20180;-83
2020/12/14 04:31:18;;;;;;;;;;;;;;;-0.15;100.00;92619.22;1063309;55;20170;-83
2020/12/14 04:32:20;;;;;;;;;;;;;;;-0.13;100.00;92626.72;1063300;55;20177;-83
2020/12/14 04:33:20;;;;;;;;;;;;;;;-0.09;100.00;92625.69;1063263;55;20177;-82
2020/12/14 04:34:21;;;;;;;;;;;;;;;-0.11;100.00;92619.28;1061246;56;20193;-83
2020/12/14 04:35:21;;;;;;;;;;;;;;;-0.10;100.00;92621.53;1065580;55;20242;-83
2020/12/14 04:36:22;;;;;;;;;;;;;;;-0.12;100.00;92623.00;1067667;55;20241;-84
2020/12/14 04:37:22;;;;;;;;;;;;;;;-0.09;100.00;92617.81;1065646;55;20710;-83
2020/12/14 04:38:23;;;;;;;;;;;;;;;-0.08;100.00;92619.31;1065453;55;20180;-83
2020/12/14 04:39:24;;;;;;;;;;;;;;;-0.09;100.00;92625.69;1063310;55;20271;-84
2020/12/14 04:40:28;;;;;;;;;;;;;;;-0.07;100.00;92620.06;1063403;55;20268;-83
2020/12/14 04:41:28;;;;;;;;;;;;;;;-0.03;100.00;92621.59;1065573;55;20165;-82
2020/12/14 04:42:30;;;;;;;;;;;;;;;0.08;100.00;92621.69;1065529;55;20157;-85
2020/12/14 04:43:30;;;;;;;;;;;;;;;-0.02;100.00;92617.09;1063430;55;20158;-84
2020/12/14 04:44:31;;;;;;;;;;;;;;;-0.06;100.00;92619.69;1065613;55;21407;-82
2020/12/14 04:45:32;;;;;;;;;;;;;;;-0.08;100.00;92621.19;1067599;55;20671;-84
2020/12/14 04:46:33;;;;;;;;;;;;;;;-0.10;100.00;92626.78;1067555;55;20665;-82
2020/12/14 04:47:34;;;;;;;;;;;;;;;-0.17;100.00;92618.84;1065598;55;20170;-83
2020/12/14 04:48:34;;;;;;;;;;;;;;;-0.18;100.00;92613.94;1063367;55;20154;-83
2020/12/14 04:49:35;;;;;;;;;;;;;;;-0.10;100.00;92616.28;1063297;55;20638;-82
2020/12/14 04:50:39;;;;;;;;;;;;;;;-0.07;100.00;92617.44;1063312;55;20162;-84
2020/12/14 04:51:40;;;;;;;;;;;;;;;-0.11;100.00;92619.28;1065804;55;20181;-83
2020/12/14 04:52:41;;;;;;;;;;;;;;;-0.11;100.00;92621.88;1065642;55;20282;-84
2020/12/14 04:53:45;;;;;;;;;;;;;;;-0.10;100.00;92612.88;1065553;55;20240;-83
2020/12/14 04:54:46;;;;;;;;;;;;;;;-0.11;100.00;92619.28;1065403;55;20656;-84
2020/12/14 04:55:47;;;;;;;;;;;;;;;-0.17;100.00;92616.22;1067560;55;20157;-83
2020/12/14 04:56:52;;;;;;;;;;;;;;;-0.14;100.00;92620.72;1065401;55;20262;-83
2020/12/14 04:57:52;;;;;;;;;;;;;;;-0.21;100.00;92623.31;1065698;55;20254;-83
2020/12/14 04:58:55;;;;;;;;;;;;;;;-0.18;100.00;92617.31;1067814;55;20164;-83
2020/12/14 04:59:55;;;;;;;;;;;;;;;-0.15;100.00;92623.72;1065557;55;20162;-83
2020/12/14 05:00:55;;;;;;;;;;;;;;;-0.23;100.00;92620.25;1065554;55;20162;-83
2020/12/14 05:02:03;;;;;;;;;;;;;;;-0.20;100.00;92613.56;1065420;55;20153;-84
2020/12/14 05:03:04;;;;;;;;;;;;;;;-0.19;100.00;92615.81;1063552;55;20271;-84
2020/12/14 05:04:04;;;;;;;;;;;;;;;-0.15;100.00;92619.22;1063285;55;20254;-83
2020/12/14 05:05:10;;;;;;;;;;;;;;;-0.15;100.00;92619.22;1065503;55;20180;-82
2020/12/14 05:06:10;;;;;;;;;;;;;;;-0.17;100.00;92620.72;1063361;55;20225;-83
2020/12/14 05:07:12;;;;;;;;;;;;;;;-0.18;100.00;92621.81;1065473;55;20653;-84
2020/12/14 05:08:23;;;;;;;;;;;;;;;-0.23;100.00;92619.50;1067711;55;20165;-83
2020/12/14 05:09:23;;;;;;;;;;;;;;;-0.28;100.00;92623.22;1065889;55;20200;-83
2020/12/14 05:10:24;;;;;;;;;;;;;;;-0.26;100.00;92618.38;1065436;55;20172;-83
2020/12/14 05:11:33;;;;;;;;;;;;;;;-0.28;100.00;92623.22;1067670;55;20625;-82
2020/12/14 05:12:41;;;;;;;;;;;;;;;-0.24;100.00;92616.13;1067612;55;20309;-83
2020/12/14 05:13:43;;;;;;;;;;;;;;;-0.35;100.00;92625.75;1067863;55;20165;-82
2020/12/14 05:14:43;;;;;;;;;;;;;;;-0.39;100.00;92624.97;1065387;55;20271;-83
2020/12/14 05:15:44;;;;;;;;;;;;;;;-0.42;100.00;92617.81;1061241;56;20250;-83